Palmese

Palmese, dopo l’esclusione regna il caos ma l’imperativo è ripartire

Come comunicato nella giornata di venerdì 23 luglio dal Comitato Regionale Calabria, la Palmese è stata esclusa dal prossimo campionato di Eccellenza. Un fulmine a ciel sereno se si pensa che appena un giorno...

Clamoroso… la Palmese è fuori dal campionato

Sembrava tutto fatto invece, dopo il biennio più disastroso di sempre, la Palmese è stata esclusa dal prossimo campionato di Eccellenza... ecco quanto riporta il comunicato: "Non ha effettuato correttamente la richiesta di partecipazione...

La Palmese iscritta al prossimo campionato di Eccellenza

La notizia è appena arrivata. Anche per il prossimo anno sportivo la Palmese sarà ai nastri di partenza del campionato… il numero 78 della sua gloriosa storia. Dopo la nomina di Alessandro De Rose, che...

Palmese, l’amletico dubbio estivo si ripresenta. Quando cambierà il vento?

Siamo sempre alle solite. Finito il campionato in casa Palmese si pone l’amletico dubbio di ogni estate e, coloro i quali hanno portato avanti il progetto relativo all’ultimo biennio (progetto che, pur avendo mantenuto...

Palmese: assemblea pubblica è andata deserta. Quale futuro?

E' caduto nel vuoto l'appello del presidente della Palmese Rocco Simone, il quale insieme a tutta la dirigenza aveva indetto un'assemblea pubblica che però è andata deserta. Di seguito tutto il rammarico espresso sulla pagina...

Palmese, finita la stagione è tempo di riaccendere l’entusiasmo

Andato in archivio il mini torneo di Eccellenza, con la Palmese che ha chiuso la stagione al triplice fischio finale della partita, valevole per il primo turno dei play off per la promozione in...

Palmese, finisce a Sambiase il sogno Serie D

Finisce alle ore 17:34 di domenica 6 giugno il sogno Serie D per la Palmese che, nel primo turno dei play off, ha pareggiato 0-0 al Gianni Renda contro il Sambiase. Nonostante l’undici di Danilo...

La vigilia di Sambiase-Palmese primo turno dei play off

Andata in archivio la 7a e ultima giornata del mini torneo di Eccellenza per la Palmese, che ha chiuso la stagione regolare al penultimo posto con soli 4 punti e con un attacco che...

Palmese, quinta sconfitta e penultima piazza in attesa dei play off

Al termine della 7a e ultima giornata del mini torneo di Eccellenza per la Palmese è arrivata la quinta sconfitta a opera del Sersale che ha violato il Giuseppe Lopresti con il più classico...

La vigilia di Palmese – Sersale

Andata in archivio la 6a giornata del mini torneo di Eccellenza per la Palmese è in programma la sfida contro il Sersale (primo a pari merito col Sambiase) al Giuseppe Lopresti. La partita contro la...

La Palmese piange, è scomparso l’ex Filippo Viscido

La notizia non può che sconvolgere perché a lasciarci, in circostanze tragiche, è stato un calciatore, ma, soprattutto, un ragazzo di appena 31 anni, Giuseppe Viscido, che a Palmi aveva giocato nella stagione 2015-16,...

Palmese, quarto inciampo contro un cinico Sambiase

Al termine della 6a giornata del mini torneo di Eccellenza per la Palmese arriva la quarta sconfitta. A battere i neroverdi è stato il Sambiase impostosi con il minimo scarto al termine di una partita nella quale...
DataCasaRisultatiTrasfertaOra
2021-05-23 15:30:0023/05/210 - 2 15:30:0015:30
2021-05-16 15:30:0016/05/211 - 0 15:30:0015:30
2021-05-09 15:30:0009/05/210 - 2 15:30:0015:30
2021-05-02 15:30:0002/05/210 - 1 15:30:0015:30
2021-04-25 15:30:0025/04/212 - 2 15:30:0015:30
2021-04-18 15:30:0018/04/211 - 0 15:30:0015:30
2021-04-11 15:30:0011/04/210 - 1 15:30:0015:30
2021-02-21 15:00:0021/02/21- 15:00:0015:00
2021-02-14 15:00:0014/02/21- 15:00:0015:00
2021-02-07 15:00:0007/02/21- 15:00:0015:00
2021-01-31 15:00:0031/01/21- 15:00:0015:00
2021-01-24 15:00:0024/01/21- 15:00:0015:00
2021-01-10 15:00:0010/01/21- 15:00:0015:00
2021-01-06 15:00:0006/01/21- 15:00:0015:00
2020-12-20 15:00:0020/12/20- 15:00:0015:00
2020-12-13 15:00:0013/12/20- 15:00:0015:00
2020-12-06 15:00:0006/12/20- 15:00:0015:00
2020-11-29 15:00:0029/11/20- 15:00:0015:00
2020-11-25 15:00:0025/11/20- 15:00:0015:00
2020-11-22 15:00:0022/11/20- 15:00:0015:00
2020-11-15 15:00:0015/11/20- 15:00:0015:00
2020-11-08 15:00:0008/11/20- 15:00:0015:00
2020-11-01 15:00:0001/11/20- 15:00:0015:00
2020-10-25 15:00:0025/10/203 - 0 15:00:0015:00
2020-10-21 15:00:0021/10/200 - 1 15:00:0015:00
2020-10-18 15:00:0018/10/207 - 0 15:00:0015:00
2020-10-11 15:00:0011/10/202 - 3 15:00:0015:00
2020-10-04 15:00:0004/10/203 - 1 15:00:0015:00
2020-05-03 15:00:0003/05/20- 15:00:0015:00
2020-04-26 15:00:0026/04/20- 15:00:0015:00
2020-04-19 15:00:0019/04/20- 15:00:0015:00
2020-04-09 15:00:0009/04/20- 15:00:0015:00
2020-04-05 15:00:0005/04/20- 15:00:0015:00
2020-03-29 15:00:0029/03/20- 15:00:0015:00
2020-03-22 14:30:0022/03/20- 14:30:0014:30
2020-03-08 14:30:0008/03/20- 14:30:0014:30
2020-03-01 14:30:0001/03/200 - 0 14:30:0014:30
2020-02-23 14:30:0023/02/204 - 1 14:30:0014:30
2020-02-16 14:30:0016/02/202 - 3 14:30:0014:30
2020-02-09 14:30:0009/02/201 - 0 14:30:0014:30
2020-02-02 14:30:0002/02/203 - 4 14:30:0014:30
2020-01-26 14:30:0026/01/201 - 0 14:30:0014:30
2020-01-19 14:30:0019/01/201 - 0 14:30:0014:30
2020-01-12 14:30:0012/01/201 - 0 14:30:0014:30
2020-01-05 14:30:0005/01/201 - 2 14:30:0014:30
2019-12-22 14:30:0022/12/191 - 4 14:30:0014:30
2019-12-15 14:30:0015/12/192 - 0 14:30:0014:30
2019-12-08 14:30:0008/12/191 - 1 14:30:0014:30
2019-12-01 14:30:0001/12/190 - 2 14:30:0014:30
2019-11-24 14:30:0024/11/190 - 0 14:30:0014:30
2019-11-17 14:30:0017/11/190 - 0 14:30:0014:30
2019-11-10 14:30:0010/11/191 - 0 14:30:0014:30
2019-11-03 14:30:0003/11/192 - 2 14:30:0014:30
2019-10-27 14:30:0027/10/192 - 0 14:30:0014:30
2019-10-20 15:00:0020/10/193 - 2 15:00:0015:00
2019-10-13 15:00:0013/10/193 - 2 15:00:0015:00
2019-10-06 15:00:0006/10/190 - 2 15:00:0015:00
2019-09-29 15:00:0029/09/190 - 0 15:00:0015:00
2019-09-22 15:00:0022/09/191 - 2 15:00:0015:00
2019-09-15 15:00:0015/09/192 - 0 15:00:0015:00
2019-09-08 16:00:0008/09/192 - 4 16:00:0016:00
2019-09-01 15:00:0001/09/194 - 1 15:00:0015:00
2019-05-05 15:00:0005/05/192 - 0 15:00:0015:00
2019-04-28 15:00:0028/04/192 - 1 15:00:0015:00
2019-04-18 15:00:0018/04/191 - 0 15:00:0015:00
2019-04-14 15:00:0014/04/193 - 3 15:00:0015:00
2019-04-07 15:00:0007/04/193 - 2 15:00:0015:00
2019-03-31 15:00:0031/03/192 - 0 15:00:0015:00
2019-03-24 14:30:0024/03/190 - 0 14:30:0014:30
2019-03-17 14:30:0017/03/192 - 0 14:30:0014:30
2019-03-03 14:30:0003/03/191 - 0 14:30:0014:30
2019-02-24 14:30:0024/02/191 - 1 14:30:0014:30
2019-02-17 14:30:0017/02/191 - 1 14:30:0014:30
2019-02-10 14:30:0010/02/191 - 1 14:30:0014:30
2019-02-03 14:30:0003/02/191 - 1 14:30:0014:30
2019-01-27 14:30:0027/01/191 - 2 14:30:0014:30
2019-01-20 14:30:0020/01/190 - 2 14:30:0014:30
2019-01-13 14:30:0013/01/190 - 0 14:30:0014:30
2019-01-06 14:30:0006/01/190 - 1 14:30:0014:30
2018-12-23 14:30:0023/12/182 - 1 14:30:0014:30
2018-12-16 14:30:0016/12/181 - 2 14:30:0014:30
2018-12-12 14:30:0012/12/183 - 0 14:30:0014:30
2018-12-09 14:30:0009/12/181 - 3 14:30:0014:30
2018-12-02 14:30:0002/12/180 - 2 14:30:0014:30
2018-11-25 14:30:0025/11/183 - 0 14:30:0014:30
2018-11-18 14:30:0018/11/181 - 0 14:30:0014:30
2018-11-14 14:30:0014/11/180 - 0 14:30:0014:30
2018-11-11 14:30:0011/11/180 - 1 14:30:0014:30
2018-11-04 14:30:0004/11/182 - 1 14:30:0014:30
2018-10-28 14:30:0028/10/182 - 2 14:30:0014:30
2018-10-21 15:00:0021/10/180 - 0 15:00:0015:00
2018-10-14 15:00:0014/10/180 - 0 15:00:0015:00
2018-10-07 15:00:0007/10/181 - 1 15:00:0015:00
2018-09-30 15:00:0030/09/181 - 0 15:00:0015:00
2018-09-23 15:00:0023/09/180 - 0 15:00:0015:00
2018-09-16 15:00:0016/09/180 - 0 15:00:0015:00
2018-05-06 15:00:0006/05/181 - 0 15:00:0015:00
2018-04-29 15:00:0029/04/180 - 3 15:00:0015:00
2018-04-22 15:00:0022/04/181 - 2 15:00:0015:00
2018-04-15 15:00:0015/04/184 - 4 15:00:0015:00
2018-04-08 15:00:0008/04/181 - 3 15:00:0015:00
2018-03-29 15:00:0029/03/181 - 0 15:00:0015:00
2018-03-25 15:00:0025/03/182 - 0 15:00:0015:00
2018-03-18 14:30:0018/03/181 - 0 14:30:0014:30
2018-03-04 14:30:0004/03/181 - 1 14:30:0014:30
2018-02-25 14:30:0025/02/183 - 3 14:30:0014:30
2018-02-18 14:30:0018/02/180 - 0 14:30:0014:30
2018-02-11 14:30:0011/02/183 - 0 14:30:0014:30
2018-02-04 14:30:0004/02/181 - 0 14:30:0014:30
2018-01-28 14:30:0028/01/181 - 2 14:30:0014:30
2018-01-21 14:30:0021/01/182 - 1 14:30:0014:30
2018-01-14 14:30:0014/01/180 - 0 14:30:0014:30
2018-01-07 14:30:0007/01/181 - 0 14:30:0014:30
2017-12-17 14:30:0017/12/171 - 0 14:30:0014:30
2017-12-10 14:30:0010/12/172 - 1 14:30:0014:30
2017-12-03 14:30:0003/12/173 - 0 14:30:0014:30
2017-11-26 14:30:0026/11/171 - 1 14:30:0014:30
2017-11-19 14:30:0019/11/173 - 1 14:30:0014:30
2017-11-12 14:30:0012/11/172 - 4 14:30:0014:30
2017-11-05 14:30:0005/11/173 - 1 14:30:0014:30
2017-11-01 14:30:0001/11/172 - 3 14:30:0014:30
2017-10-29 14:30:0029/10/173 - 1 14:30:0014:30
2017-10-22 15:00:0022/10/173 - 3 15:00:0015:00
2017-10-15 15:00:0015/10/171 - 1 15:00:0015:00
2017-10-08 15:00:0008/10/172 - 2 15:00:0015:00
2017-10-01 15:00:0001/10/172 - 2 15:00:0015:00
2017-09-24 15:00:0024/09/171 - 0 15:00:0015:00
2017-09-17 15:00:0017/09/172 - 1 15:00:0015:00
2017-09-10 15:00:0010/09/173 - 1 15:00:0015:00
2017-09-03 16:00:0003/09/171 - 2 16:00:0016:00